Pagrindinis puslapis
METAR-TAF:

METAR-TAF

Oro uostai :

Hobart, Oklahoma, Jungtinės Amerikos Valstijos

platuma: 34-59-22N, ilguma: 099-03-09W, Aukštis: 476 m

Dabartinis oras

Ataskaita buvo paskelbta 13 minutes, ne 09:53 UTC
Vėjas 6 kt iš Pietų
Temperatūra 25°C
Drėgmė 89%
Slėgis 1013 hPa
Matomumas: 9.7 km
Giedras dangus
rūkana

METAR: KHBR 020953Z AUTO 18006KT 6SM BR CLR 25/23 A2990 RMK AO2 SLP099 T02500233

Laikas: 05:06 (10:06 UTC)


TAF: trūkstamas

Orai ataskaitas ir orų prognozės (METAR, TAF).

turimą stotys yra geltonos ir raudonos taškus žemėlapyje.

Perkelti pele per norėdami pamatyti stoties vardą.

Tada spustelėkite, norėdami matyti oro stebėjimo ir prognozės.

Norėdami pakeisti žemėlapį: spustelėkite ant žalios mygtukų su juodo kryžiaus žemyn,; žalią mygtuką su brūkšneliu, jei norite nutolinti; arba žalių rodyklių gretimoms žemėlapius.


METAR-TAF: